createdAt,value
2023-04-10T01:21:52.178Z,47.67
2023-04-10T02:37:55.939Z,45.60
2023-04-10T02:58:15.241Z,42.03
2023-04-10T03:43:41.569Z,51.80
2023-04-10T04:59:42.158Z,44.67
2023-04-10T05:34:55.519Z,41.43
2023-04-10T06:00:43.552Z,35.97
2023-04-10T06:30:57.698Z,19.93
2023-04-10T07:16:13.100Z,15.80
2023-04-10T08:37:16.002Z,12.10
2023-04-10T09:18:03.701Z,7.77
2023-04-10T09:43:34.832Z,7.97
2023-04-10T10:13:39.316Z,7.77
2023-04-10T10:44:31.515Z,5.47
2023-04-10T11:14:23.645Z,4.97
2023-04-10T11:35:23.493Z,4.33
2023-04-10T11:39:41.888Z,4.67
2023-04-10T11:54:55.199Z,4.90
2023-04-10T12:15:30.905Z,3.90
2023-04-10T12:41:03.159Z,4.53
2023-04-10T13:11:37.059Z,3.60
2023-04-10T13:41:50.824Z,8.23
2023-04-10T14:12:26.283Z,6.33
2023-04-10T14:37:51.159Z,7.60
2023-04-10T15:18:21.130Z,5.63
2023-04-10T15:43:37.457Z,6.40
2023-04-10T16:04:04.940Z,5.67
2023-04-10T16:08:24.191Z,5.70
2023-04-10T17:03:32.231Z,7.20
2023-04-10T17:49:29.075Z,18.63
2023-04-10T18:24:24.142Z,10.77
2023-04-10T18:40:16.487Z,12.10
2023-04-10T19:05:17.054Z,13.57
2023-04-10T19:25:11.635Z,12.70
2023-04-10T19:51:07.110Z,17.13
2023-04-10T20:21:42.654Z,24.30
2023-04-10T20:47:01.214Z,23.27
2023-04-10T21:12:17.198Z,26.23
2023-04-10T21:32:38.824Z,29.30
2023-04-10T22:02:58.896Z,28.97
2023-04-10T22:33:13.150Z,34.53
2023-04-10T22:53:39.772Z,34.53
2023-04-10T23:24:00.092Z,40.83
